sensor_id;sensor_type;location;lat;lon;timestamp;P1;durP1;ratioP1;P2;durP2;ratioP2
20629;SDS011;17386;43.846;25.950;2023-02-26T00:02:21;31.20;;;11.90;;
20629;SDS011;17386;43.846;25.950;2023-02-26T00:04:46;35.05;;;14.38;;
20629;SDS011;17386;43.846;25.950;2023-02-26T00:07:11;39.78;;;14.40;;
20629;SDS011;17386;43.846;25.950;2023-02-26T00:09:37;37.95;;;14.73;;
20629;SDS011;17386;43.846;25.950;2023-02-26T00:12:02;31.15;;;13.15;;
20629;SDS011;17386;43.846;25.950;2023-02-26T00:14:28;30.25;;;12.35;;
20629;SDS011;17386;43.846;25.950;2023-02-26T00:17:05;34.10;;;13.57;;
20629;SDS011;17386;43.846;25.950;2023-02-26T00:19:43;41.42;;;15.48;;
20629;SDS011;17386;43.846;25.950;2023-02-26T00:22:09;35.53;;;13.90;;
20629;SDS011;17386;43.846;25.950;2023-02-26T00:24:35;34.58;;;14.30;;
20629;SDS011;17386;43.846;25.950;2023-02-26T00:27:00;30.70;;;12.45;;
20629;SDS011;17386;43.846;25.950;2023-02-26T00:29:25;27.73;;;10.70;;
20629;SDS011;17386;43.846;25.950;2023-02-26T00:31:51;27.52;;;12.40;;
20629;SDS011;17386;43.846;25.950;2023-02-26T00:34:17;32.95;;;12.05;;
20629;SDS011;17386;43.846;25.950;2023-02-26T00:42:00;31.45;;;11.15;;
20629;SDS011;17386;43.846;25.950;2023-02-26T00:44:26;37.90;;;12.82;;
20629;SDS011;17386;43.846;25.950;2023-02-26T00:52:28;31.80;;;11.00;;
20629;SDS011;17386;43.846;25.950;2023-02-26T00:55:03;31.40;;;12.50;;
20629;SDS011;17386;43.846;25.950;2023-02-26T00:57:28;33.20;;;11.40;;
20629;SDS011;17386;43.846;25.950;2023-02-26T00:59:54;27.85;;;10.00;;
20629;SDS011;17386;43.846;25.950;2023-02-26T01:02:19;26.60;;;9.50;;
20629;SDS011;17386;43.846;25.950;2023-02-26T01:04:44;33.03;;;10.65;;
20629;SDS011;17386;43.846;25.950;2023-02-26T01:07:12;28.15;;;9.95;;
20629;SDS011;17386;43.846;25.950;2023-02-26T01:09:38;24.40;;;10.48;;
20629;SDS011;17386;43.846;25.950;2023-02-26T01:12:05;27.85;;;10.25;;
20629;SDS011;17386;43.846;25.950;2023-02-26T01:14:33;25.50;;;9.52;;
20629;SDS011;17386;43.846;25.950;2023-02-26T01:17:06;25.05;;;8.65;;
20629;SDS011;17386;43.846;25.950;2023-02-26T01:19:47;25.05;;;9.27;;
20629;SDS011;17386;43.846;25.950;2023-02-26T01:25:07;24.85;;;9.27;;
20629;SDS011;17386;43.846;25.950;2023-02-26T01:27:53;28.20;;;8.88;;
20629;SDS011;17386;43.846;25.950;2023-02-26T01:30:21;22.08;;;8.52;;
20629;SDS011;17386;43.846;25.950;2023-02-26T01:37:56;24.35;;;10.25;;
20629;SDS011;17386;43.846;25.950;2023-02-26T01:42:58;27.23;;;9.52;;
20629;SDS011;17386;43.846;25.950;2023-02-26T01:45:32;20.60;;;8.10;;
20629;SDS011;17386;43.846;25.950;2023-02-26T01:48:05;30.42;;;9.57;;
20629;SDS011;17386;43.846;25.950;2023-02-26T01:50:41;23.90;;;8.95;;
20629;SDS011;17386;43.846;25.950;2023-02-26T01:53:16;21.13;;;8.80;;
20629;SDS011;17386;43.846;25.950;2023-02-26T01:55:44;25.33;;;8.25;;
20629;SDS011;17386;43.846;25.950;2023-02-26T01:58:13;26.25;;;7.35;;
20629;SDS011;17386;43.846;25.950;2023-02-26T02:00:39;23.13;;;7.85;;
20629;SDS011;17386;43.846;25.950;2023-02-26T02:03:04;15.45;;;6.72;;
20629;SDS011;17386;43.846;25.950;2023-02-26T02:05:32;17.60;;;6.35;;
20629;SDS011;17386;43.846;25.950;2023-02-26T02:08:03;17.35;;;5.95;;
20629;SDS011;17386;43.846;25.950;2023-02-26T02:10:28;22.02;;;6.53;;
20629;SDS011;17386;43.846;25.950;2023-02-26T02:24:00;22.80;;;7.43;;
20629;SDS011;17386;43.846;25.950;2023-02-26T02:26:55;21.10;;;5.68;;
20629;SDS011;17386;43.846;25.950;2023-02-26T02:31:56;14.20;;;5.60;;
20629;SDS011;17386;43.846;25.950;2023-02-26T02:37:16;14.85;;;5.50;;
20629;SDS011;17386;43.846;25.950;2023-02-26T02:44:38;16.52;;;5.13;;
20629;SDS011;17386;43.846;25.950;2023-02-26T02:47:08;14.27;;;5.72;;
20629;SDS011;17386;43.846;25.950;2023-02-26T02:49:38;19.17;;;5.97;;
20629;SDS011;17386;43.846;25.950;2023-02-26T02:53:12;16.88;;;5.75;;
20629;SDS011;17386;43.846;25.950;2023-02-26T02:55:39;15.52;;;4.97;;
20629;SDS011;17386;43.846;25.950;2023-02-26T02:58:12;15.32;;;5.60;;
20629;SDS011;17386;43.846;25.950;2023-02-26T03:00:45;18.98;;;5.20;;
20629;SDS011;17386;43.846;25.950;2023-02-26T03:06:15;14.90;;;5.10;;
20629;SDS011;17386;43.846;25.950;2023-02-26T03:08:42;15.95;;;4.97;;
20629;SDS011;17386;43.846;25.950;2023-02-26T03:11:09;18.85;;;4.95;;
20629;SDS011;17386;43.846;25.950;2023-02-26T03:13:34;16.38;;;5.03;;
20629;SDS011;17386;43.846;25.950;2023-02-26T03:16:09;18.65;;;5.20;;
20629;SDS011;17386;43.846;25.950;2023-02-26T03:26:28;13.38;;;4.95;;
20629;SDS011;17386;43.846;25.950;2023-02-26T03:29:05;14.45;;;4.65;;
20629;SDS011;17386;43.846;25.950;2023-02-26T03:32:10;17.80;;;5.07;;
20629;SDS011;17386;43.846;25.950;2023-02-26T03:37:24;13.40;;;4.18;;
20629;SDS011;17386;43.846;25.950;2023-02-26T03:39:56;13.27;;;4.60;;
20629;SDS011;17386;43.846;25.950;2023-02-26T03:42:31;11.07;;;4.60;;
20629;SDS011;17386;43.846;25.950;2023-02-26T03:45:09;16.30;;;4.28;;
20629;SDS011;17386;43.846;25.950;2023-02-26T03:47:47;17.08;;;4.50;;
20629;SDS011;17386;43.846;25.950;2023-02-26T03:50:40;15.52;;;4.13;;
20629;SDS011;17386;43.846;25.950;2023-02-26T03:53:06;19.88;;;4.47;;
20629;SDS011;17386;43.846;25.950;2023-02-26T03:55:35;18.15;;;4.65;;
20629;SDS011;17386;43.846;25.950;2023-02-26T03:58:07;13.32;;;4.78;;
20629;SDS011;17386;43.846;25.950;2023-02-26T04:00:33;14.13;;;4.63;;
20629;SDS011;17386;43.846;25.950;2023-02-26T04:05:47;12.40;;;4.35;;
20629;SDS011;17386;43.846;25.950;2023-02-26T04:08:15;15.10;;;4.43;;
20629;SDS011;17386;43.846;25.950;2023-02-26T04:10:43;17.30;;;4.25;;
20629;SDS011;17386;43.846;25.950;2023-02-26T04:13:17;16.02;;;4.20;;
20629;SDS011;17386;43.846;25.950;2023-02-26T04:15:42;9.85;;;4.38;;
20629;SDS011;17386;43.846;25.950;2023-02-26T04:18:07;16.85;;;4.22;;
20629;SDS011;17386;43.846;25.950;2023-02-26T04:20:33;12.60;;;3.97;;
20629;SDS011;17386;43.846;25.950;2023-02-26T04:22:58;16.52;;;4.40;;
20629;SDS011;17386;43.846;25.950;2023-02-26T04:25:24;13.02;;;3.75;;
20629;SDS011;17386;43.846;25.950;2023-02-26T04:27:49;10.30;;;3.83;;
20629;SDS011;17386;43.846;25.950;2023-02-26T04:30:15;18.52;;;4.82;;
20629;SDS011;17386;43.846;25.950;2023-02-26T04:32:40;17.00;;;4.70;;
20629;SDS011;17386;43.846;25.950;2023-02-26T04:35:06;18.55;;;4.20;;
20629;SDS011;17386;43.846;25.950;2023-02-26T04:37:31;16.80;;;5.00;;
20629;SDS011;17386;43.846;25.950;2023-02-26T04:39:57;10.60;;;4.20;;
20629;SDS011;17386;43.846;25.950;2023-02-26T04:42:22;16.63;;;5.13;;
20629;SDS011;17386;43.846;25.950;2023-02-26T04:44:48;17.92;;;4.75;;
20629;SDS011;17386;43.846;25.950;2023-02-26T04:47:13;13.60;;;4.20;;
20629;SDS011;17386;43.846;25.950;2023-02-26T04:49:38;16.38;;;4.43;;
20629;SDS011;17386;43.846;25.950;2023-02-26T04:52:04;14.32;;;3.97;;
20629;SDS011;17386;43.846;25.950;2023-02-26T04:54:29;18.17;;;4.50;;
20629;SDS011;17386;43.846;25.950;2023-02-26T04:56:55;17.67;;;4.47;;
20629;SDS011;17386;43.846;25.950;2023-02-26T04:59:20;16.90;;;4.70;;
20629;SDS011;17386;43.846;25.950;2023-02-26T05:01:46;9.50;;;4.50;;
20629;SDS011;17386;43.846;25.950;2023-02-26T05:04:11;13.68;;;4.28;;
20629;SDS011;17386;43.846;25.950;2023-02-26T05:06:37;12.23;;;4.55;;
20629;SDS011;17386;43.846;25.950;2023-02-26T05:09:02;15.77;;;4.60;;
20629;SDS011;17386;43.846;25.950;2023-02-26T05:11:29;18.58;;;4.80;;
20629;SDS011;17386;43.846;25.950;2023-02-26T05:13:55;17.17;;;4.68;;
20629;SDS011;17386;43.846;25.950;2023-02-26T05:16:20;13.75;;;4.28;;
20629;SDS011;17386;43.846;25.950;2023-02-26T05:18:45;17.60;;;4.50;;
20629;SDS011;17386;43.846;25.950;2023-02-26T05:21:11;15.52;;;4.45;;
20629;SDS011;17386;43.846;25.950;2023-02-26T05:23:36;13.40;;;4.63;;
20629;SDS011;17386;43.846;25.950;2023-02-26T05:26:02;17.25;;;4.72;;
20629;SDS011;17386;43.846;25.950;2023-02-26T05:28:27;12.90;;;3.95;;
20629;SDS011;17386;43.846;25.950;2023-02-26T05:30:54;12.43;;;3.92;;
20629;SDS011;17386;43.846;25.950;2023-02-26T05:33:20;12.30;;;4.38;;
20629;SDS011;17386;43.846;25.950;2023-02-26T05:35:46;14.10;;;4.68;;
20629;SDS011;17386;43.846;25.950;2023-02-26T05:38:12;14.57;;;4.03;;
20629;SDS011;17386;43.846;25.950;2023-02-26T05:40:37;16.50;;;4.60;;
20629;SDS011;17386;43.846;25.950;2023-02-26T05:43:03;15.82;;;4.80;;
20629;SDS011;17386;43.846;25.950;2023-02-26T05:45:28;14.30;;;4.10;;
20629;SDS011;17386;43.846;25.950;2023-02-26T05:47:53;14.68;;;3.92;;
20629;SDS011;17386;43.846;25.950;2023-02-26T05:50:19;15.00;;;4.32;;
20629;SDS011;17386;43.846;25.950;2023-02-26T05:52:45;15.75;;;4.25;;
20629;SDS011;17386;43.846;25.950;2023-02-26T05:55:10;12.85;;;4.40;;
20629;SDS011;17386;43.846;25.950;2023-02-26T05:57:36;15.73;;;4.10;;
20629;SDS011;17386;43.846;25.950;2023-02-26T06:00:02;18.80;;;5.25;;
20629;SDS011;17386;43.846;25.950;2023-02-26T06:02:29;16.30;;;4.72;;
20629;SDS011;17386;43.846;25.950;2023-02-26T06:04:54;15.88;;;4.75;;
20629;SDS011;17386;43.846;25.950;2023-02-26T06:07:20;14.30;;;4.40;;
20629;SDS011;17386;43.846;25.950;2023-02-26T06:09:45;12.75;;;4.75;;
20629;SDS011;17386;43.846;25.950;2023-02-26T06:12:10;16.58;;;4.53;;
20629;SDS011;17386;43.846;25.950;2023-02-26T06:14:36;16.27;;;4.78;;
20629;SDS011;17386;43.846;25.950;2023-02-26T06:17:02;21.45;;;4.80;;
20629;SDS011;17386;43.846;25.950;2023-02-26T06:19:28;11.93;;;4.28;;
20629;SDS011;17386;43.846;25.950;2023-02-26T06:21:53;19.73;;;5.13;;
20629;SDS011;17386;43.846;25.950;2023-02-26T06:24:19;16.13;;;4.57;;
20629;SDS011;17386;43.846;25.950;2023-02-26T06:26:44;14.55;;;4.78;;
20629;SDS011;17386;43.846;25.950;2023-02-26T06:29:10;23.00;;;5.57;;
20629;SDS011;17386;43.846;25.950;2023-02-26T06:31:36;16.20;;;4.80;;
20629;SDS011;17386;43.846;25.950;2023-02-26T06:34:01;15.43;;;4.95;;
20629;SDS011;17386;43.846;25.950;2023-02-26T06:36:26;17.55;;;4.50;;
20629;SDS011;17386;43.846;25.950;2023-02-26T06:38:52;20.23;;;5.03;;
20629;SDS011;17386;43.846;25.950;2023-02-26T06:41:17;22.92;;;4.20;;
20629;SDS011;17386;43.846;25.950;2023-02-26T06:43:42;19.83;;;5.60;;
20629;SDS011;17386;43.846;25.950;2023-02-26T06:46:08;20.50;;;4.70;;
20629;SDS011;17386;43.846;25.950;2023-02-26T06:48:33;16.02;;;5.07;;
20629;SDS011;17386;43.846;25.950;2023-02-26T06:51:00;16.60;;;4.32;;
20629;SDS011;17386;43.846;25.950;2023-02-26T06:53:25;14.93;;;4.78;;
20629;SDS011;17386;43.846;25.950;2023-02-26T06:55:51;17.38;;;4.88;;
20629;SDS011;17386;43.846;25.950;2023-02-26T06:58:17;14.38;;;4.50;;
20629;SDS011;17386;43.846;25.950;2023-02-26T07:00:42;24.60;;;5.22;;
20629;SDS011;17386;43.846;25.950;2023-02-26T07:03:09;20.33;;;4.95;;
20629;SDS011;17386;43.846;25.950;2023-02-26T07:05:37;18.35;;;5.03;;
20629;SDS011;17386;43.846;25.950;2023-02-26T07:08:02;18.55;;;4.65;;
20629;SDS011;17386;43.846;25.950;2023-02-26T07:10:30;14.05;;;4.65;;
20629;SDS011;17386;43.846;25.950;2023-02-26T07:12:57;15.65;;;4.22;;
20629;SDS011;17386;43.846;25.950;2023-02-26T07:15:22;14.90;;;4.85;;
20629;SDS011;17386;43.846;25.950;2023-02-26T07:17:47;16.45;;;4.93;;
20629;SDS011;17386;43.846;25.950;2023-02-26T07:20:13;14.60;;;4.95;;
20629;SDS011;17386;43.846;25.950;2023-02-26T07:22:39;16.52;;;5.00;;
20629;SDS011;17386;43.846;25.950;2023-02-26T07:25:04;14.32;;;5.32;;
20629;SDS011;17386;43.846;25.950;2023-02-26T07:27:31;15.73;;;4.90;;
20629;SDS011;17386;43.846;25.950;2023-02-26T07:29:57;15.43;;;4.75;;
20629;SDS011;17386;43.846;25.950;2023-02-26T07:32:23;12.88;;;5.57;;
20629;SDS011;17386;43.846;25.950;2023-02-26T07:34:49;15.02;;;4.68;;
20629;SDS011;17386;43.846;25.950;2023-02-26T07:37:14;17.02;;;5.10;;
20629;SDS011;17386;43.846;25.950;2023-02-26T07:39:39;19.38;;;6.38;;
20629;SDS011;17386;43.846;25.950;2023-02-26T07:42:05;20.77;;;6.35;;
20629;SDS011;17386;43.846;25.950;2023-02-26T07:44:30;18.05;;;5.68;;
20629;SDS011;17386;43.846;25.950;2023-02-26T07:46:56;27.92;;;6.22;;
20629;SDS011;17386;43.846;25.950;2023-02-26T07:49:21;16.77;;;5.95;;
20629;SDS011;17386;43.846;25.950;2023-02-26T07:51:47;12.90;;;5.30;;
20629;SDS011;17386;43.846;25.950;2023-02-26T07:54:12;20.65;;;5.38;;
20629;SDS011;17386;43.846;25.950;2023-02-26T07:56:38;17.63;;;5.00;;
20629;SDS011;17386;43.846;25.950;2023-02-26T07:59:05;16.25;;;4.85;;
20629;SDS011;17386;43.846;25.950;2023-02-26T08:01:30;14.27;;;5.72;;
20629;SDS011;17386;43.846;25.950;2023-02-26T08:03:56;16.85;;;5.15;;
20629;SDS011;17386;43.846;25.950;2023-02-26T08:06:21;14.70;;;4.65;;
20629;SDS011;17386;43.846;25.950;2023-02-26T08:08:47;15.75;;;4.95;;
20629;SDS011;17386;43.846;25.950;2023-02-26T08:11:12;16.85;;;5.05;;
20629;SDS011;17386;43.846;25.950;2023-02-26T08:13:37;19.98;;;5.22;;
20629;SDS011;17386;43.846;25.950;2023-02-26T08:16:03;12.65;;;5.05;;
20629;SDS011;17386;43.846;25.950;2023-02-26T08:18:28;15.70;;;4.43;;
20629;SDS011;17386;43.846;25.950;2023-02-26T08:20:54;13.02;;;4.18;;
20629;SDS011;17386;43.846;25.950;2023-02-26T08:23:19;15.90;;;4.47;;
20629;SDS011;17386;43.846;25.950;2023-02-26T08:25:45;17.23;;;4.20;;
20629;SDS011;17386;43.846;25.950;2023-02-26T08:28:11;13.27;;;4.53;;
20629;SDS011;17386;43.846;25.950;2023-02-26T08:30:36;14.45;;;4.10;;
20629;SDS011;17386;43.846;25.950;2023-02-26T08:33:02;13.77;;;4.30;;
20629;SDS011;17386;43.846;25.950;2023-02-26T08:35:28;17.67;;;3.92;;
20629;SDS011;17386;43.846;25.950;2023-02-26T08:37:54;15.70;;;5.10;;
20629;SDS011;17386;43.846;25.950;2023-02-26T08:40:19;15.02;;;4.38;;
20629;SDS011;17386;43.846;25.950;2023-02-26T08:42:44;16.95;;;4.05;;
20629;SDS011;17386;43.846;25.950;2023-02-26T08:45:11;17.50;;;4.20;;
20629;SDS011;17386;43.846;25.950;2023-02-26T08:47:36;16.83;;;4.78;;
20629;SDS011;17386;43.846;25.950;2023-02-26T08:50:02;17.58;;;4.50;;
20629;SDS011;17386;43.846;25.950;2023-02-26T08:52:28;14.30;;;4.20;;
20629;SDS011;17386;43.846;25.950;2023-02-26T08:54:54;16.83;;;4.18;;
20629;SDS011;17386;43.846;25.950;2023-02-26T08:57:19;16.27;;;4.32;;
20629;SDS011;17386;43.846;25.950;2023-02-26T08:59:45;22.35;;;5.22;;
20629;SDS011;17386;43.846;25.950;2023-02-26T09:02:11;13.63;;;3.75;;
20629;SDS011;17386;43.846;25.950;2023-02-26T09:04:36;13.05;;;4.18;;
20629;SDS011;17386;43.846;25.950;2023-02-26T09:07:02;14.25;;;3.78;;
20629;SDS011;17386;43.846;25.950;2023-02-26T09:09:27;15.07;;;4.80;;
20629;SDS011;17386;43.846;25.950;2023-02-26T09:11:53;18.92;;;4.13;;
20629;SDS011;17386;43.846;25.950;2023-02-26T09:14:18;15.40;;;4.28;;
20629;SDS011;17386;43.846;25.950;2023-02-26T09:16:44;15.10;;;4.05;;
20629;SDS011;17386;43.846;25.950;2023-02-26T09:19:09;17.30;;;4.18;;
20629;SDS011;17386;43.846;25.950;2023-02-26T09:21:35;17.83;;;4.53;;
20629;SDS011;17386;43.846;25.950;2023-02-26T09:24:00;20.90;;;4.22;;
20629;SDS011;17386;43.846;25.950;2023-02-26T09:26:26;18.70;;;4.32;;
20629;SDS011;17386;43.846;25.950;2023-02-26T09:28:51;19.70;;;5.82;;
20629;SDS011;17386;43.846;25.950;2023-02-26T09:31:17;13.57;;;3.85;;
20629;SDS011;17386;43.846;25.950;2023-02-26T09:33:42;15.80;;;3.97;;
20629;SDS011;17386;43.846;25.950;2023-02-26T09:36:08;14.95;;;3.80;;
20629;SDS011;17386;43.846;25.950;2023-02-26T09:38:34;22.02;;;5.05;;
20629;SDS011;17386;43.846;25.950;2023-02-26T09:41:03;20.92;;;4.60;;
20629;SDS011;17386;43.846;25.950;2023-02-26T09:45:58;11.57;;;3.67;;
20629;SDS011;17386;43.846;25.950;2023-02-26T09:48:29;16.23;;;4.03;;
20629;SDS011;17386;43.846;25.950;2023-02-26T09:50:57;13.50;;;3.80;;
20629;SDS011;17386;43.846;25.950;2023-02-26T09:53:27;17.75;;;4.10;;
20629;SDS011;17386;43.846;25.950;2023-02-26T09:58:46;15.32;;;3.95;;
20629;SDS011;17386;43.846;25.950;2023-02-26T10:12:15;14.07;;;4.30;;
20629;SDS011;17386;43.846;25.950;2023-02-26T10:19:53;16.10;;;4.35;;
20629;SDS011;17386;43.846;25.950;2023-02-26T10:30:24;17.45;;;4.75;;
20629;SDS011;17386;43.846;25.950;2023-02-26T10:33:00;17.35;;;4.30;;
20629;SDS011;17386;43.846;25.950;2023-02-26T10:35:40;16.55;;;4.65;;
20629;SDS011;17386;43.846;25.950;2023-02-26T10:38:12;13.93;;;4.35;;
20629;SDS011;17386;43.846;25.950;2023-02-26T10:41:22;19.25;;;4.90;;
20629;SDS011;17386;43.846;25.950;2023-02-26T10:43:42;17.27;;;4.07;;
20629;SDS011;17386;43.846;25.950;2023-02-26T10:46:26;16.35;;;4.30;;
20629;SDS011;17386;43.846;25.950;2023-02-26T10:51:56;22.13;;;4.68;;
20629;SDS011;17386;43.846;25.950;2023-02-26T10:54:30;15.88;;;4.45;;
20629;SDS011;17386;43.846;25.950;2023-02-26T10:56:59;18.15;;;4.22;;
20629;SDS011;17386;43.846;25.950;2023-02-26T10:59:25;17.10;;;4.10;;
20629;SDS011;17386;43.846;25.950;2023-02-26T11:01:51;15.15;;;4.53;;
20629;SDS011;17386;43.846;25.950;2023-02-26T11:04:19;19.17;;;4.15;;
20629;SDS011;17386;43.846;25.950;2023-02-26T11:06:48;15.60;;;4.50;;
20629;SDS011;17386;43.846;25.950;2023-02-26T11:09:26;15.00;;;4.15;;
20629;SDS011;17386;43.846;25.950;2023-02-26T11:12:00;16.40;;;3.92;;
20629;SDS011;17386;43.846;25.950;2023-02-26T11:14:37;23.33;;;4.88;;
20629;SDS011;17386;43.846;25.950;2023-02-26T11:17:09;22.33;;;4.53;;
20629;SDS011;17386;43.846;25.950;2023-02-26T11:19:49;16.67;;;4.65;;
20629;SDS011;17386;43.846;25.950;2023-02-26T11:22:24;14.52;;;4.28;;
20629;SDS011;17386;43.846;25.950;2023-02-26T11:24:51;14.52;;;4.03;;
20629;SDS011;17386;43.846;25.950;2023-02-26T11:27:18;17.75;;;4.35;;
20629;SDS011;17386;43.846;25.950;2023-02-26T11:29:52;16.85;;;4.35;;
20629;SDS011;17386;43.846;25.950;2023-02-26T11:32:23;14.50;;;4.05;;
20629;SDS011;17386;43.846;25.950;2023-02-26T11:34:54;17.42;;;4.03;;
20629;SDS011;17386;43.846;25.950;2023-02-26T11:37:26;19.48;;;4.43;;
20629;SDS011;17386;43.846;25.950;2023-02-26T11:42:21;13.50;;;4.20;;
20629;SDS011;17386;43.846;25.950;2023-02-26T11:44:47;15.88;;;3.80;;
20629;SDS011;17386;43.846;25.950;2023-02-26T11:47:16;18.52;;;3.97;;
20629;SDS011;17386;43.846;25.950;2023-02-26T11:49:55;13.90;;;4.18;;
20629;SDS011;17386;43.846;25.950;2023-02-26T11:52:32;14.55;;;3.92;;
20629;SDS011;17386;43.846;25.950;2023-02-26T11:55:04;25.83;;;4.63;;
20629;SDS011;17386;43.846;25.950;2023-02-26T11:57:42;18.10;;;4.35;;
20629;SDS011;17386;43.846;25.950;2023-02-26T12:00:18;24.55;;;4.68;;
20629;SDS011;17386;43.846;25.950;2023-02-26T12:02:59;14.55;;;4.55;;
20629;SDS011;17386;43.846;25.950;2023-02-26T12:05:28;18.88;;;4.03;;
20629;SDS011;17386;43.846;25.950;2023-02-26T12:07:54;19.73;;;4.65;;
20629;SDS011;17386;43.846;25.950;2023-02-26T12:10:29;20.25;;;4.38;;
20629;SDS011;17386;43.846;25.950;2023-02-26T12:13:10;17.23;;;3.67;;
20629;SDS011;17386;43.846;25.950;2023-02-26T12:21:24;19.00;;;4.65;;
20629;SDS011;17386;43.846;25.950;2023-02-26T12:31:53;16.92;;;3.22;;
20629;SDS011;17386;43.846;25.950;2023-02-26T12:43:10;15.50;;;3.78;;
20629;SDS011;17386;43.846;25.950;2023-02-26T12:45:55;12.32;;;3.60;;
20629;SDS011;17386;43.846;25.950;2023-02-26T12:54:09;13.20;;;3.40;;
20629;SDS011;17386;43.846;25.950;2023-02-26T12:57:00;16.88;;;4.32;;
20629;SDS011;17386;43.846;25.950;2023-02-26T12:59:35;17.02;;;4.00;;
20629;SDS011;17386;43.846;25.950;2023-02-26T13:02:07;18.17;;;4.10;;
20629;SDS011;17386;43.846;25.950;2023-02-26T13:18:10;13.52;;;3.78;;
20629;SDS011;17386;43.846;25.950;2023-02-26T13:21:05;17.75;;;4.00;;
20629;SDS011;17386;43.846;25.950;2023-02-26T13:26:24;16.45;;;4.63;;
20629;SDS011;17386;43.846;25.950;2023-02-26T13:28:53;15.32;;;3.85;;
20629;SDS011;17386;43.846;25.950;2023-02-26T13:31:33;19.27;;;3.97;;
20629;SDS011;17386;43.846;25.950;2023-02-26T13:34:14;15.82;;;4.03;;
20629;SDS011;17386;43.846;25.950;2023-02-26T13:36:44;13.30;;;3.58;;
20629;SDS011;17386;43.846;25.950;2023-02-26T13:52:52;16.63;;;4.78;;
20629;SDS011;17386;43.846;25.950;2023-02-26T14:00:47;14.40;;;4.18;;
20629;SDS011;17386;43.846;25.950;2023-02-26T14:03:49;14.07;;;4.70;;
20629;SDS011;17386;43.846;25.950;2023-02-26T14:08:49;14.30;;;4.70;;
20629;SDS011;17386;43.846;25.950;2023-02-26T14:14:18;14.52;;;4.25;;
20629;SDS011;17386;43.846;25.950;2023-02-26T14:19:34;17.42;;;4.13;;
20629;SDS011;17386;43.846;25.950;2023-02-26T14:22:21;23.92;;;4.97;;
20629;SDS011;17386;43.846;25.950;2023-02-26T14:24:53;17.52;;;4.85;;
20629;SDS011;17386;43.846;25.950;2023-02-26T14:27:35;16.08;;;4.68;;
20629;SDS011;17386;43.846;25.950;2023-02-26T14:35:13;10.80;;;3.72;;
20629;SDS011;17386;43.846;25.950;2023-02-26T14:38:03;15.50;;;4.38;;
20629;SDS011;17386;43.846;25.950;2023-02-26T14:40:35;15.95;;;4.65;;
20629;SDS011;17386;43.846;25.950;2023-02-26T14:43:54;20.98;;;5.00;;
20629;SDS011;17386;43.846;25.950;2023-02-26T14:46:04;19.33;;;4.07;;
20629;SDS011;17386;43.846;25.950;2023-02-26T14:48:32;13.23;;;3.70;;
20629;SDS011;17386;43.846;25.950;2023-02-26T14:58:59;16.77;;;3.42;;
20629;SDS011;17386;43.846;25.950;2023-02-26T15:02:29;16.50;;;4.07;;
20629;SDS011;17386;43.846;25.950;2023-02-26T15:23:37;12.32;;;3.88;;
20629;SDS011;17386;43.846;25.950;2023-02-26T15:26:05;16.95;;;4.50;;
20629;SDS011;17386;43.846;25.950;2023-02-26T15:28:36;13.73;;;4.50;;
20629;SDS011;17386;43.846;25.950;2023-02-26T15:31:04;11.32;;;3.95;;
20629;SDS011;17386;43.846;25.950;2023-02-26T15:33:32;14.88;;;3.40;;
20629;SDS011;17386;43.846;25.950;2023-02-26T15:35:59;16.50;;;3.83;;
20629;SDS011;17386;43.846;25.950;2023-02-26T15:38:25;16.35;;;4.30;;
20629;SDS011;17386;43.846;25.950;2023-02-26T15:40:52;16.70;;;3.70;;
20629;SDS011;17386;43.846;25.950;2023-02-26T15:43:22;17.98;;;4.38;;
20629;SDS011;17386;43.846;25.950;2023-02-26T15:45:52;24.27;;;4.80;;
20629;SDS011;17386;43.846;25.950;2023-02-26T15:48:35;15.45;;;4.65;;
20629;SDS011;17386;43.846;25.950;2023-02-26T15:51:06;14.77;;;4.13;;
20629;SDS011;17386;43.846;25.950;2023-02-26T15:53:46;13.85;;;3.90;;
20629;SDS011;17386;43.846;25.950;2023-02-26T15:56:22;16.70;;;4.35;;
20629;SDS011;17386;43.846;25.950;2023-02-26T16:01:25;19.48;;;4.10;;
20629;SDS011;17386;43.846;25.950;2023-02-26T16:03:55;19.10;;;5.75;;
20629;SDS011;17386;43.846;25.950;2023-02-26T16:06:29;17.58;;;4.22;;
20629;SDS011;17386;43.846;25.950;2023-02-26T16:08:58;13.35;;;3.80;;
20629;SDS011;17386;43.846;25.950;2023-02-26T16:11:25;15.73;;;4.82;;
20629;SDS011;17386;43.846;25.950;2023-02-26T16:16:25;16.50;;;3.85;;
20629;SDS011;17386;43.846;25.950;2023-02-26T16:18:53;14.60;;;4.22;;
20629;SDS011;17386;43.846;25.950;2023-02-26T16:21:26;18.00;;;4.20;;
20629;SDS011;17386;43.846;25.950;2023-02-26T16:23:56;19.30;;;3.70;;
20629;SDS011;17386;43.846;25.950;2023-02-26T16:26:29;14.30;;;3.80;;
20629;SDS011;17386;43.846;25.950;2023-02-26T16:29:01;18.08;;;3.90;;
20629;SDS011;17386;43.846;25.950;2023-02-26T16:31:31;12.80;;;3.70;;
20629;SDS011;17386;43.846;25.950;2023-02-26T16:36:57;21.33;;;4.20;;
20629;SDS011;17386;43.846;25.950;2023-02-26T16:39:33;21.30;;;4.28;;
20629;SDS011;17386;43.846;25.950;2023-02-26T16:42:07;13.23;;;4.80;;
20629;SDS011;17386;43.846;25.950;2023-02-26T16:44:45;17.98;;;4.18;;
20629;SDS011;17386;43.846;25.950;2023-02-26T16:47:13;15.18;;;4.13;;
20629;SDS011;17386;43.846;25.950;2023-02-26T16:49:40;15.48;;;4.45;;
20629;SDS011;17386;43.846;25.950;2023-02-26T16:52:08;13.98;;;4.10;;
20629;SDS011;17386;43.846;25.950;2023-02-26T16:54:40;14.43;;;3.90;;
20629;SDS011;17386;43.846;25.950;2023-02-26T16:59:40;16.33;;;3.72;;
20629;SDS011;17386;43.846;25.950;2023-02-26T17:02:21;15.60;;;4.15;;
20629;SDS011;17386;43.846;25.950;2023-02-26T17:04:49;9.70;;;3.60;;
20629;SDS011;17386;43.846;25.950;2023-02-26T17:07:32;10.88;;;3.78;;
20629;SDS011;17386;43.846;25.950;2023-02-26T17:10:05;15.73;;;3.92;;
20629;SDS011;17386;43.846;25.950;2023-02-26T17:12:45;15.35;;;3.92;;
20629;SDS011;17386;43.846;25.950;2023-02-26T17:15:17;12.75;;;4.05;;
20629;SDS011;17386;43.846;25.950;2023-02-26T17:17:45;16.73;;;3.90;;
20629;SDS011;17386;43.846;25.950;2023-02-26T17:20:11;15.85;;;4.05;;
20629;SDS011;17386;43.846;25.950;2023-02-26T17:22:37;15.57;;;4.00;;
20629;SDS011;17386;43.846;25.950;2023-02-26T17:25:03;11.85;;;3.92;;
20629;SDS011;17386;43.846;25.950;2023-02-26T17:27:34;10.95;;;4.07;;
20629;SDS011;17386;43.846;25.950;2023-02-26T17:30:04;10.55;;;4.07;;
20629;SDS011;17386;43.846;25.950;2023-02-26T17:32:30;16.20;;;4.47;;
20629;SDS011;17386;43.846;25.950;2023-02-26T17:34:56;15.18;;;4.30;;
20629;SDS011;17386;43.846;25.950;2023-02-26T17:37:23;11.68;;;3.92;;
20629;SDS011;17386;43.846;25.950;2023-02-26T17:39:53;17.30;;;3.67;;
20629;SDS011;17386;43.846;25.950;2023-02-26T17:42:18;14.82;;;4.28;;
20629;SDS011;17386;43.846;25.950;2023-02-26T17:44:45;18.85;;;4.57;;
20629;SDS011;17386;43.846;25.950;2023-02-26T17:47:21;13.50;;;4.57;;
20629;SDS011;17386;43.846;25.950;2023-02-26T17:49:48;14.45;;;4.25;;
20629;SDS011;17386;43.846;25.950;2023-02-26T17:52:14;13.32;;;4.55;;
20629;SDS011;17386;43.846;25.950;2023-02-26T17:54:40;14.43;;;4.45;;
20629;SDS011;17386;43.846;25.950;2023-02-26T17:57:06;74.55;;;11.02;;
20629;SDS011;17386;43.846;25.950;2023-02-26T17:59:34;15.90;;;4.13;;
20629;SDS011;17386;43.846;25.950;2023-02-26T18:02:00;15.43;;;4.50;;
20629;SDS011;17386;43.846;25.950;2023-02-26T18:04:25;16.98;;;4.22;;